N4042M KLAX-KCPM
Flight info
| Callsign | N4042M |
|---|---|
| Flight time | 0h 16m |
| Altitude | VFR |
| Route | SB ALONG SHORELINE |
| Aircraft | SR22/L-VGD/C |
Departure
| Time | 2026-05-06 22:13 |
|---|---|
| Airport | Los Angeles International Airport (KLAX) |
Arrival
| Time | 2026-05-06 22:29 |
|---|---|
| Airport | Compton Woodley Airport (KCPM) |
| Time | Latitude | Longitude | Altitude | Speed | Heading |
|---|---|---|---|---|---|
| 2026-05-06 22:12 | 33.72319 | -118.43893 | 4299 ft | 158 kts | 176° |
| 2026-05-06 22:13 | 33.71241 | -118.43827 | 4287 ft | 153 kts | 176° |
| 2026-05-06 22:13 | 33.70199 | -118.43748 | 4284 ft | 148 kts | 175° |
| 2026-05-06 22:13 | 33.69173 | -118.43679 | 4283 ft | 148 kts | 176° |
| 2026-05-06 22:13 | 33.68144 | -118.43620 | 4285 ft | 150 kts | 176° |
| 2026-05-06 22:14 | 33.67081 | -118.43557 | 4294 ft | 156 kts | 176° |
| 2026-05-06 22:14 | 33.65989 | -118.43493 | 4301 ft | 158 kts | 176° |
| 2026-05-06 22:14 | 33.64882 | -118.43425 | 4303 ft | 160 kts | 176° |
| 2026-05-06 22:14 | 33.63766 | -118.43354 | 4305 ft | 166 kts | 176° |
| 2026-05-06 22:15 | 33.62599 | -118.43276 | 4304 ft | 170 kts | 176° |
| 2026-05-06 22:15 | 33.61406 | -118.43198 | 4310 ft | 173 kts | 176° |
| 2026-05-06 22:15 | 33.60197 | -118.43121 | 4306 ft | 175 kts | 176° |
| 2026-05-06 22:15 | 33.58993 | -118.43049 | 4306 ft | 172 kts | 177° |
| 2026-05-06 22:16 | 33.57817 | -118.42972 | 4304 ft | 167 kts | 175° |
| 2026-05-06 22:16 | 33.56804 | -118.42454 | 4294 ft | 156 kts | 130° |
| 2026-05-06 22:16 | 33.56485 | -118.41313 | 4292 ft | 143 kts | 78° |
| 2026-05-06 22:16 | 33.56924 | -118.40325 | 4297 ft | 134 kts | 43° |
| 2026-05-06 22:17 | 33.57581 | -118.39542 | 4292 ft | 132 kts | 42° |
| 2026-05-06 22:17 | 33.58259 | -118.38823 | 4288 ft | 129 kts | 22° |
| 2026-05-06 22:17 | 33.59106 | -118.38512 | 4291 ft | 127 kts | 17° |
| 2026-05-06 22:17 | 33.59949 | -118.38194 | 4291 ft | 127 kts | 16° |
| 2026-05-06 22:18 | 33.60791 | -118.37868 | 4290 ft | 127 kts | 17° |
| 2026-05-06 22:18 | 33.61627 | -118.37536 | 4284 ft | 126 kts | 18° |
| 2026-05-06 22:18 | 33.62424 | -118.37108 | 4288 ft | 127 kts | 36° |
| 2026-05-06 22:18 | 33.63057 | -118.36387 | 4291 ft | 127 kts | 39° |
| 2026-05-06 22:19 | 33.63113 | -118.36329 | 4290 ft | 127 kts | 39° |
| 2026-05-06 22:19 | 33.63753 | -118.35690 | 4319 ft | 125 kts | 38° |
| 2026-05-06 22:19 | 33.64450 | -118.35053 | 4319 ft | 128 kts | 35° |
| 2026-05-06 22:19 | 33.65224 | -118.34392 | 4334 ft | 143 kts | 34° |
| 2026-05-06 22:20 | 33.66068 | -118.33689 | 4333 ft | 152 kts | 33° |
| 2026-05-06 22:20 | 33.66943 | -118.32941 | 4332 ft | 158 kts | 36° |
| 2026-05-06 22:20 | 33.67835 | -118.32150 | 4334 ft | 160 kts | 36° |
| 2026-05-06 22:20 | 33.68733 | -118.31352 | 4326 ft | 161 kts | 36° |
| 2026-05-06 22:21 | 33.69655 | -118.30540 | 4206 ft | 167 kts | 36° |
| 2026-05-06 22:21 | 33.70589 | -118.29724 | 4062 ft | 167 kts | 36° |
| 2026-05-06 22:21 | 33.71522 | -118.28909 | 3928 ft | 170 kts | 35° |
| 2026-05-06 22:21 | 33.72481 | -118.28073 | 3775 ft | 170 kts | 36° |
| 2026-05-06 22:22 | 33.73443 | -118.27234 | 3602 ft | 171 kts | 35° |
| 2026-05-06 22:22 | 33.74414 | -118.26396 | 3468 ft | 171 kts | 35° |
| 2026-05-06 22:22 | 33.75349 | -118.25588 | 3446 ft | 160 kts | 36° |
| 2026-05-06 22:22 | 33.76235 | -118.24839 | 3413 ft | 152 kts | 35° |
| 2026-05-06 22:23 | 33.77089 | -118.24134 | 3375 ft | 147 kts | 34° |
| 2026-05-06 22:23 | 33.77921 | -118.23447 | 3329 ft | 144 kts | 34° |
| 2026-05-06 22:23 | 33.78727 | -118.22781 | 3300 ft | 141 kts | 34° |
| 2026-05-06 22:23 | 33.79526 | -118.22115 | 3241 ft | 139 kts | 34° |
| 2026-05-06 22:24 | 33.80328 | -118.21445 | 3096 ft | 144 kts | 34° |
| 2026-05-06 22:24 | 33.81185 | -118.20732 | 2849 ft | 153 kts | 34° |
| 2026-05-06 22:24 | 33.82070 | -118.19976 | 2645 ft | 159 kts | 33° |
| 2026-05-06 22:24 | 33.82980 | -118.19184 | 2433 ft | 162 kts | 33° |
| 2026-05-06 22:25 | 33.83899 | -118.18345 | 2226 ft | 169 kts | 35° |
| 2026-05-06 22:25 | 33.84810 | -118.17513 | 2190 ft | 160 kts | 37° |
| 2026-05-06 22:25 | 33.85669 | -118.16736 | 2153 ft | 154 kts | 36° |
| 2026-05-06 22:25 | 33.86513 | -118.15969 | 2056 ft | 151 kts | 34° |
| 2026-05-06 22:26 | 33.87374 | -118.15276 | 1929 ft | 147 kts | 18° |
| 2026-05-06 22:26 | 33.88345 | -118.14980 | 1857 ft | 142 kts | 1° |
| 2026-05-06 22:26 | 33.89158 | -118.15422 | 1477 ft | 134 kts | 283° |
| 2026-05-06 22:26 | 33.89170 | -118.16446 | 1407 ft | 114 kts | 261° |
| 2026-05-06 22:27 | 33.89013 | -118.17416 | 1392 ft | 122 kts | 256° |
| 2026-05-06 22:27 | 33.88876 | -118.18411 | 1407 ft | 119 kts | 261° |
| 2026-05-06 22:27 | 33.88911 | -118.19403 | 1256 ft | 118 kts | 273° |
| 2026-05-06 22:27 | 33.89041 | -118.20356 | 1007 ft | 107 kts | 271° |
| 2026-05-06 22:28 | 33.89051 | -118.21222 | 699 ft | 98 kts | 263° |
| 2026-05-06 22:28 | 33.88979 | -118.22099 | 506 ft | 107 kts | 264° |
| 2026-05-06 22:28 | 33.88976 | -118.22961 | 379 ft | 100 kts | 270° |
| 2026-05-06 22:28 | 33.88968 | -118.23762 | 176 ft | 88 kts | 267° |
| 2026-05-06 22:29 | 33.88965 | -118.24367 | 97 ft | 58 kts | 270° |
| 2026-05-06 22:29 | 33.88964 | -118.24682 | 103 ft | 20 kts | 268° |
| 2026-05-06 22:29 | 33.88962 | -118.24845 | 103 ft | 19 kts | 269° |
| 2026-05-06 22:29 | 33.88949 | -118.24924 | 104 ft | 5 kts | 178° |
| 2026-05-06 22:30 | 33.88928 | -118.24892 | 104 ft | 2 kts | 80° |
| 2026-05-06 22:30 | 33.88933 | -118.24835 | 104 ft | 0 kts | 90° |
| 2026-05-06 22:30 | 33.88933 | -118.24782 | 103 ft | 13 kts | 90° |
| 2026-05-06 22:31 | 33.88935 | -118.24660 | 103 ft | 7 kts | 89° |
| 2026-05-06 22:31 | 33.88934 | -118.24553 | 101 ft | 19 kts | 92° |
| 2026-05-06 22:31 | 33.88937 | -118.24369 | 97 ft | 22 kts | 88° |
| 2026-05-06 22:31 | 33.88936 | -118.24204 | 96 ft | 16 kts | 90° |
| 2026-05-06 22:32 | 33.88939 | -118.24091 | 95 ft | 10 kts | 90° |
| 2026-05-06 22:32 | 33.88937 | -118.24016 | 93 ft | 9 kts | 89° |
| 2026-05-06 22:32 | 33.88938 | -118.23920 | 90 ft | 11 kts | 90° |
| 2026-05-06 22:32 | 33.88937 | -118.23820 | 89 ft | 7 kts | 92° |
| 2026-05-06 22:33 | 33.88960 | -118.23779 | 90 ft | 7 kts | 330° |
| 2026-05-06 22:33 | 33.88968 | -118.23841 | 90 ft | 0 kts | 270° |
| 2026-05-06 22:33 | 33.88968 | -118.23842 | 90 ft | 0 kts | 270° |
| 2026-05-06 22:33 | 33.88968 | -118.23874 | 90 ft | 25 kts | 269° |
| 2026-05-06 22:34 | 33.88967 | -118.24360 | 131 ft | 79 kts | 270° |
| 2026-05-06 22:34 | 33.88980 | -118.25071 | 360 ft | 88 kts | 272° |
| 2026-05-06 22:34 | 33.89058 | -118.25851 | 631 ft | 94 kts | 272° |
| 2026-05-06 22:34 | 33.89088 | -118.26676 | 931 ft | 102 kts | 272° |
| 2026-05-06 22:35 | 33.89325 | -118.27613 | 962 ft | 133 kts | 300° |
| 2026-05-06 22:35 | 33.89758 | -118.28525 | 1461 ft | 115 kts | 288° |
| 2026-05-06 22:35 | 33.90073 | -118.29386 | 1816 ft | 115 kts | 286° |
| 2026-05-06 22:35 | 33.90403 | -118.30260 | 2010 ft | 114 kts | 289° |
| 2026-05-06 22:36 | 33.90815 | -118.31112 | 1979 ft | 126 kts | 314° |
| 2026-05-06 22:36 | 33.91670 | -118.31148 | 1981 ft | 137 kts | 35° |
| 2026-05-06 22:36 | 33.91959 | -118.30078 | 1962 ft | 142 kts | 100° |
| 2026-05-06 22:36 | 33.91755 | -118.28923 | 1970 ft | 139 kts | 108° |
| 2026-05-06 22:37 | 33.91472 | -118.27867 | 2062 ft | 131 kts | 116° |
| 2026-05-06 22:37 | 33.91121 | -118.26866 | 2060 ft | 130 kts | 119° |
| 2026-05-06 22:37 | 33.90758 | -118.25878 | 2054 ft | 130 kts | 121° |
| 2026-05-06 22:37 | 33.90366 | -118.24894 | 2072 ft | 129 kts | 120° |
| 2026-05-06 22:38 | 33.89957 | -118.23915 | 2020 ft | 132 kts | 124° |
| 2026-05-06 22:38 | 33.89781 | -118.22868 | 2028 ft | 136 kts | 74° |
| 2026-05-06 22:38 | 33.90431 | -118.22101 | 1961 ft | 139 kts | 20° |
| 2026-05-06 22:38 | 33.91368 | -118.21930 | 2035 ft | 132 kts | 352° |
| 2026-05-06 22:39 | 33.92233 | -118.22029 | 2097 ft | 125 kts | 347° |
| 2026-05-06 22:39 | 33.93103 | -118.22100 | 2061 ft | 131 kts | 352° |
| 2026-05-06 22:39 | 33.94018 | -118.22095 | 2084 ft | 131 kts | 354° |
| 2026-05-06 22:39 | 33.94832 | -118.22435 | 2069 ft | 122 kts | 314° |
| 2026-05-06 22:40 | 33.95132 | -118.23319 | 1969 ft | 120 kts | 269° |
| 2026-05-06 22:40 | 33.95137 | -118.24253 | 2157 ft | 105 kts | 265° |
| 2026-05-06 22:40 | 33.95063 | -118.25111 | 2202 ft | 106 kts | 259° |
| 2026-05-06 22:40 | 33.94970 | -118.26040 | 2084 ft | 118 kts | 261° |
| 2026-05-06 22:41 | 33.94776 | -118.28110 | 1760 ft | 128 kts | 261° |
| 2026-05-06 22:41 | 33.94674 | -118.29181 | 1583 ft | 129 kts | 260° |
| 2026-05-06 22:41 | 33.94563 | -118.30241 | 1407 ft | 125 kts | 259° |
| 2026-05-06 22:42 | 33.94461 | -118.31246 | 1245 ft | 118 kts | 263° |
| 2026-05-06 22:42 | 33.94365 | -118.32213 | 1093 ft | 115 kts | 260° |
| 2026-05-06 22:42 | 33.94270 | -118.33143 | 952 ft | 107 kts | 262° |
| 2026-05-06 22:42 | 33.94193 | -118.33962 | 917 ft | 93 kts | 262° |
| 2026-05-06 22:43 | 33.94108 | -118.34731 | 753 ft | 90 kts | 263° |
| 2026-05-06 22:43 | 33.94038 | -118.35479 | 652 ft | 91 kts | 265° |
| 2026-05-06 22:43 | 33.93950 | -118.36250 | 542 ft | 94 kts | 266° |
| 2026-05-06 22:43 | 33.93877 | -118.37036 | 427 ft | 93 kts | 265° |
| 2026-05-06 22:44 | 33.93805 | -118.37726 | 276 ft | 76 kts | 261° |
| 2026-05-06 22:44 | 33.93736 | -118.38330 | 157 ft | 68 kts | 261° |
| 2026-05-06 22:44 | 33.93681 | -118.38814 | 121 ft | 49 kts | 263° |
| 2026-05-06 22:44 | 33.93662 | -118.39020 | 121 ft | 7 kts | 261° |
| 2026-05-06 22:45 | 33.93653 | -118.39108 | 121 ft | 15 kts | 257° |